sensor_id;sensor_type;location;lat;lon;timestamp;P1;durP1;ratioP1;P2;durP2;ratioP2
79074;SDS011;68476;42.710;23.388;2023-04-21T00:00:55;20.90;;;14.75;;
79074;SDS011;68476;42.710;23.388;2023-04-21T00:03:20;22.15;;;14.05;;
79074;SDS011;68476;42.710;23.388;2023-04-21T00:05:51;19.75;;;14.10;;
79074;SDS011;68476;42.710;23.388;2023-04-21T00:08:16;17.83;;;13.80;;
79074;SDS011;68476;42.710;23.388;2023-04-21T00:10:43;20.67;;;13.18;;
79074;SDS011;68476;42.710;23.388;2023-04-21T00:13:09;15.68;;;12.07;;
79074;SDS011;68476;42.710;23.388;2023-04-21T00:15:34;19.10;;;13.23;;
79074;SDS011;68476;42.710;23.388;2023-04-21T00:18:00;16.23;;;12.35;;
79074;SDS011;68476;42.710;23.388;2023-04-21T00:20:27;17.17;;;12.45;;
79074;SDS011;68476;42.710;23.388;2023-04-21T00:22:53;17.23;;;11.68;;
79074;SDS011;68476;42.710;23.388;2023-04-21T00:25:19;16.23;;;12.40;;
79074;SDS011;68476;42.710;23.388;2023-04-21T00:27:45;18.55;;;12.05;;
79074;SDS011;68476;42.710;23.388;2023-04-21T00:30:10;16.45;;;12.23;;
79074;SDS011;68476;42.710;23.388;2023-04-21T00:32:36;16.85;;;11.82;;
79074;SDS011;68476;42.710;23.388;2023-04-21T00:35:01;16.48;;;11.50;;
79074;SDS011;68476;42.710;23.388;2023-04-21T00:37:27;16.33;;;11.05;;
79074;SDS011;68476;42.710;23.388;2023-04-21T00:39:53;18.35;;;10.65;;
79074;SDS011;68476;42.710;23.388;2023-04-21T00:42:18;15.07;;;10.13;;
79074;SDS011;68476;42.710;23.388;2023-04-21T00:44:43;15.32;;;10.52;;
79074;SDS011;68476;42.710;23.388;2023-04-21T00:47:09;13.65;;;10.50;;
79074;SDS011;68476;42.710;23.388;2023-04-21T00:49:35;15.77;;;10.82;;
79074;SDS011;68476;42.710;23.388;2023-04-21T00:52:01;13.98;;;10.55;;
79074;SDS011;68476;42.710;23.388;2023-04-21T00:54:29;15.98;;;11.38;;
79074;SDS011;68476;42.710;23.388;2023-04-21T00:56:55;15.43;;;10.73;;
79074;SDS011;68476;42.710;23.388;2023-04-21T00:59:23;15.13;;;10.48;;
79074;SDS011;68476;42.710;23.388;2023-04-21T01:01:49;15.57;;;11.27;;
79074;SDS011;68476;42.710;23.388;2023-04-21T01:04:14;15.85;;;10.60;;
79074;SDS011;68476;42.710;23.388;2023-04-21T01:06:39;16.67;;;11.13;;
79074;SDS011;68476;42.710;23.388;2023-04-21T01:09:06;14.80;;;9.77;;
79074;SDS011;68476;42.710;23.388;2023-04-21T01:11:31;17.40;;;10.57;;
79074;SDS011;68476;42.710;23.388;2023-04-21T01:13:57;15.18;;;10.82;;
79074;SDS011;68476;42.710;23.388;2023-04-21T01:16:23;16.85;;;11.75;;
79074;SDS011;68476;42.710;23.388;2023-04-21T01:18:52;16.02;;;11.30;;
79074;SDS011;68476;42.710;23.388;2023-04-21T01:21:18;16.95;;;11.15;;
79074;SDS011;68476;42.710;23.388;2023-04-21T01:23:44;16.45;;;11.90;;
79074;SDS011;68476;42.710;23.388;2023-04-21T01:26:10;17.08;;;11.10;;
79074;SDS011;68476;42.710;23.388;2023-04-21T01:28:36;15.63;;;10.38;;
79074;SDS011;68476;42.710;23.388;2023-04-21T01:31:02;17.83;;;10.80;;
79074;SDS011;68476;42.710;23.388;2023-04-21T01:33:27;14.75;;;10.00;;
79074;SDS011;68476;42.710;23.388;2023-04-21T01:35:53;15.02;;;10.18;;
79074;SDS011;68476;42.710;23.388;2023-04-21T01:38:19;14.50;;;9.27;;
79074;SDS011;68476;42.710;23.388;2023-04-21T01:40:49;14.18;;;10.13;;
79074;SDS011;68476;42.710;23.388;2023-04-21T01:43:16;16.33;;;11.15;;
79074;SDS011;68476;42.710;23.388;2023-04-21T01:45:44;15.85;;;9.75;;
79074;SDS011;68476;42.710;23.388;2023-04-21T01:48:09;13.38;;;9.30;;
79074;SDS011;68476;42.710;23.388;2023-04-21T01:50:35;17.45;;;10.25;;
79074;SDS011;68476;42.710;23.388;2023-04-21T01:53:00;13.98;;;9.82;;
79074;SDS011;68476;42.710;23.388;2023-04-21T01:55:26;15.13;;;10.75;;
79074;SDS011;68476;42.710;23.388;2023-04-21T01:57:51;13.05;;;10.40;;
79074;SDS011;68476;42.710;23.388;2023-04-21T02:00:17;13.85;;;9.07;;
79074;SDS011;68476;42.710;23.388;2023-04-21T02:02:42;12.63;;;9.73;;
79074;SDS011;68476;42.710;23.388;2023-04-21T02:05:08;13.57;;;10.27;;
79074;SDS011;68476;42.710;23.388;2023-04-21T02:07:33;14.88;;;10.48;;
79074;SDS011;68476;42.710;23.388;2023-04-21T02:09:58;14.90;;;11.10;;
79074;SDS011;68476;42.710;23.388;2023-04-21T02:12:24;15.18;;;10.27;;
79074;SDS011;68476;42.710;23.388;2023-04-21T02:14:49;15.45;;;11.10;;
79074;SDS011;68476;42.710;23.388;2023-04-21T02:17:15;16.63;;;10.65;;
79074;SDS011;68476;42.710;23.388;2023-04-21T02:19:41;15.93;;;11.27;;
79074;SDS011;68476;42.710;23.388;2023-04-21T02:22:06;18.15;;;11.43;;
79074;SDS011;68476;42.710;23.388;2023-04-21T02:24:32;16.70;;;11.27;;
79074;SDS011;68476;42.710;23.388;2023-04-21T02:26:58;17.85;;;12.05;;
79074;SDS011;68476;42.710;23.388;2023-04-21T02:29:24;17.38;;;11.40;;
79074;SDS011;68476;42.710;23.388;2023-04-21T02:31:49;17.05;;;11.88;;
79074;SDS011;68476;42.710;23.388;2023-04-21T02:34:15;19.25;;;13.35;;
79074;SDS011;68476;42.710;23.388;2023-04-21T02:36:40;19.80;;;13.10;;
79074;SDS011;68476;42.710;23.388;2023-04-21T02:39:05;19.27;;;12.40;;
79074;SDS011;68476;42.710;23.388;2023-04-21T02:41:31;17.38;;;12.98;;
79074;SDS011;68476;42.710;23.388;2023-04-21T02:43:57;15.95;;;10.95;;
79074;SDS011;68476;42.710;23.388;2023-04-21T02:46:22;19.15;;;11.60;;
79074;SDS011;68476;42.710;23.388;2023-04-21T02:48:47;21.42;;;11.98;;
79074;SDS011;68476;42.710;23.388;2023-04-21T02:51:13;17.23;;;11.88;;
79074;SDS011;68476;42.710;23.388;2023-04-21T02:53:39;19.15;;;12.88;;
79074;SDS011;68476;42.710;23.388;2023-04-21T02:56:05;15.95;;;11.52;;
79074;SDS011;68476;42.710;23.388;2023-04-21T02:58:32;14.95;;;10.88;;
79074;SDS011;68476;42.710;23.388;2023-04-21T03:01:01;16.67;;;11.20;;
79074;SDS011;68476;42.710;23.388;2023-04-21T03:03:28;17.65;;;10.90;;
79074;SDS011;68476;42.710;23.388;2023-04-21T03:05:58;14.25;;;10.63;;
79074;SDS011;68476;42.710;23.388;2023-04-21T03:08:24;15.13;;;11.30;;
79074;SDS011;68476;42.710;23.388;2023-04-21T03:10:50;18.88;;;11.82;;
79074;SDS011;68476;42.710;23.388;2023-04-21T03:13:15;16.48;;;10.88;;
79074;SDS011;68476;42.710;23.388;2023-04-21T03:15:41;17.65;;;11.05;;
79074;SDS011;68476;42.710;23.388;2023-04-21T03:18:07;15.77;;;10.90;;
79074;SDS011;68476;42.710;23.388;2023-04-21T03:20:32;19.23;;;10.40;;
79074;SDS011;68476;42.710;23.388;2023-04-21T03:22:58;16.40;;;10.88;;
79074;SDS011;68476;42.710;23.388;2023-04-21T03:25:23;14.60;;;9.90;;
79074;SDS011;68476;42.710;23.388;2023-04-21T03:27:49;16.00;;;10.90;;
79074;SDS011;68476;42.710;23.388;2023-04-21T03:30:14;16.50;;;10.60;;
79074;SDS011;68476;42.710;23.388;2023-04-21T03:32:40;15.07;;;10.55;;
79074;SDS011;68476;42.710;23.388;2023-04-21T03:35:05;16.65;;;11.38;;
79074;SDS011;68476;42.710;23.388;2023-04-21T03:37:30;17.95;;;10.95;;
79074;SDS011;68476;42.710;23.388;2023-04-21T03:39:56;16.10;;;10.80;;
79074;SDS011;68476;42.710;23.388;2023-04-21T03:42:21;15.10;;;10.38;;
79074;SDS011;68476;42.710;23.388;2023-04-21T03:44:47;17.83;;;11.63;;
79074;SDS011;68476;42.710;23.388;2023-04-21T03:47:12;15.48;;;10.70;;
79074;SDS011;68476;42.710;23.388;2023-04-21T03:49:37;15.93;;;9.77;;
79074;SDS011;68476;42.710;23.388;2023-04-21T03:52:03;14.73;;;10.85;;
79074;SDS011;68476;42.710;23.388;2023-04-21T03:54:28;14.18;;;10.38;;
79074;SDS011;68476;42.710;23.388;2023-04-21T03:56:54;16.60;;;10.57;;
79074;SDS011;68476;42.710;23.388;2023-04-21T03:59:20;14.90;;;10.38;;
79074;SDS011;68476;42.710;23.388;2023-04-21T04:01:45;17.05;;;11.73;;
79074;SDS011;68476;42.710;23.388;2023-04-21T04:04:10;14.15;;;10.15;;
79074;SDS011;68476;42.710;23.388;2023-04-21T04:06:36;17.30;;;10.98;;
79074;SDS011;68476;42.710;23.388;2023-04-21T04:09:01;17.15;;;11.15;;
79074;SDS011;68476;42.710;23.388;2023-04-21T04:11:28;16.35;;;10.48;;
79074;SDS011;68476;42.710;23.388;2023-04-21T04:13:54;15.85;;;10.98;;
79074;SDS011;68476;42.710;23.388;2023-04-21T04:16:20;16.38;;;10.73;;
79074;SDS011;68476;42.710;23.388;2023-04-21T04:18:45;13.45;;;9.82;;
79074;SDS011;68476;42.710;23.388;2023-04-21T04:21:10;14.25;;;9.98;;
79074;SDS011;68476;42.710;23.388;2023-04-21T04:23:36;14.98;;;9.98;;
79074;SDS011;68476;42.710;23.388;2023-04-21T04:26:01;13.00;;;10.13;;
79074;SDS011;68476;42.710;23.388;2023-04-21T04:28:29;15.00;;;9.57;;
79074;SDS011;68476;42.710;23.388;2023-04-21T04:30:55;13.23;;;9.35;;
79074;SDS011;68476;42.710;23.388;2023-04-21T04:33:20;12.75;;;9.32;;
79074;SDS011;68476;42.710;23.388;2023-04-21T04:35:46;13.48;;;9.55;;
79074;SDS011;68476;42.710;23.388;2023-04-21T04:38:11;14.82;;;9.93;;
79074;SDS011;68476;42.710;23.388;2023-04-21T04:40:39;11.82;;;9.15;;
79074;SDS011;68476;42.710;23.388;2023-04-21T04:43:06;15.05;;;9.98;;
79074;SDS011;68476;42.710;23.388;2023-04-21T04:45:32;13.27;;;10.10;;
79074;SDS011;68476;42.710;23.388;2023-04-21T04:47:58;13.82;;;10.38;;
79074;SDS011;68476;42.710;23.388;2023-04-21T04:50:24;14.40;;;10.43;;
79074;SDS011;68476;42.710;23.388;2023-04-21T04:52:49;14.82;;;10.27;;
79074;SDS011;68476;42.710;23.388;2023-04-21T04:55:15;16.50;;;10.48;;
79074;SDS011;68476;42.710;23.388;2023-04-21T04:57:40;15.63;;;10.15;;
79074;SDS011;68476;42.710;23.388;2023-04-21T05:00:06;14.13;;;10.10;;
79074;SDS011;68476;42.710;23.388;2023-04-21T05:05:01;14.02;;;9.48;;
79074;SDS011;68476;42.710;23.388;2023-04-21T05:07:27;15.80;;;10.48;;
79074;SDS011;68476;42.710;23.388;2023-04-21T05:09:52;15.13;;;10.63;;
79074;SDS011;68476;42.710;23.388;2023-04-21T05:12:18;14.13;;;10.25;;
79074;SDS011;68476;42.710;23.388;2023-04-21T05:14:43;14.65;;;11.77;;
79074;SDS011;68476;42.710;23.388;2023-04-21T05:17:09;14.10;;;10.30;;
79074;SDS011;68476;42.710;23.388;2023-04-21T05:19:35;16.65;;;11.52;;
79074;SDS011;68476;42.710;23.388;2023-04-21T05:22:01;16.17;;;12.75;;
79074;SDS011;68476;42.710;23.388;2023-04-21T05:24:26;14.23;;;10.50;;
79074;SDS011;68476;42.710;23.388;2023-04-21T05:26:52;15.45;;;11.60;;
79074;SDS011;68476;42.710;23.388;2023-04-21T05:29:18;14.35;;;10.93;;
79074;SDS011;68476;42.710;23.388;2023-04-21T05:31:43;14.23;;;10.80;;
79074;SDS011;68476;42.710;23.388;2023-04-21T05:34:08;12.32;;;9.35;;
79074;SDS011;68476;42.710;23.388;2023-04-21T05:36:34;17.48;;;10.57;;
79074;SDS011;68476;42.710;23.388;2023-04-21T05:38:59;15.10;;;10.60;;
79074;SDS011;68476;42.710;23.388;2023-04-21T05:41:25;14.32;;;11.10;;
79074;SDS011;68476;42.710;23.388;2023-04-21T05:43:50;17.80;;;10.48;;
79074;SDS011;68476;42.710;23.388;2023-04-21T05:46:15;15.30;;;11.85;;
79074;SDS011;68476;42.710;23.388;2023-04-21T05:48:41;14.75;;;10.70;;
79074;SDS011;68476;42.710;23.388;2023-04-21T05:51:07;16.10;;;11.10;;
79074;SDS011;68476;42.710;23.388;2023-04-21T05:53:37;17.30;;;11.25;;
79074;SDS011;68476;42.710;23.388;2023-04-21T05:56:03;15.10;;;10.80;;
79074;SDS011;68476;42.710;23.388;2023-04-21T05:58:29;16.48;;;10.80;;
